sensor_id;sensor_type;location;lat;lon;timestamp;P1;durP1;ratioP1;P2;durP2;ratioP2
4957;SDS011;2494;51.872;9.688;2022-09-09T00:01:21;1.87;;;1.00;;
4957;SDS011;2494;51.872;9.688;2022-09-09T00:03:53;1.47;;;1.13;;
4957;SDS011;2494;51.872;9.688;2022-09-09T00:06:21;1.10;;;1.00;;
4957;SDS011;2494;51.872;9.688;2022-09-09T00:08:52;1.33;;;1.10;;
4957;SDS011;2494;51.872;9.688;2022-09-09T00:11:26;3.80;;;1.10;;
4957;SDS011;2494;51.872;9.688;2022-09-09T00:13:55;2.60;;;1.40;;
4957;SDS011;2494;51.872;9.688;2022-09-09T00:16:24;2.30;;;1.30;;
4957;SDS011;2494;51.872;9.688;2022-09-09T00:18:53;2.07;;;1.10;;
4957;SDS011;2494;51.872;9.688;2022-09-09T00:21:22;2.67;;;1.43;;
4957;SDS011;2494;51.872;9.688;2022-09-09T00:23:51;1.23;;;1.10;;
4957;SDS011;2494;51.872;9.688;2022-09-09T00:26:19;1.50;;;1.10;;
4957;SDS011;2494;51.872;9.688;2022-09-09T00:28:49;1.20;;;1.10;;
4957;SDS011;2494;51.872;9.688;2022-09-09T00:31:20;4.10;;;1.30;;
4957;SDS011;2494;51.872;9.688;2022-09-09T00:33:49;1.50;;;1.30;;
4957;SDS011;2494;51.872;9.688;2022-09-09T00:36:16;2.27;;;1.27;;
4957;SDS011;2494;51.872;9.688;2022-09-09T00:38:45;1.77;;;1.30;;
4957;SDS011;2494;51.872;9.688;2022-09-09T00:41:15;3.33;;;1.30;;
4957;SDS011;2494;51.872;9.688;2022-09-09T00:43:42;5.27;;;1.27;;
4957;SDS011;2494;51.872;9.688;2022-09-09T00:46:16;1.43;;;1.20;;
4957;SDS011;2494;51.872;9.688;2022-09-09T00:48:52;3.43;;;1.43;;
4957;SDS011;2494;51.872;9.688;2022-09-09T00:51:23;2.57;;;1.40;;
4957;SDS011;2494;51.872;9.688;2022-09-09T00:53:57;1.23;;;1.13;;
4957;SDS011;2494;51.872;9.688;2022-09-09T00:56:27;1.30;;;1.20;;
4957;SDS011;2494;51.872;9.688;2022-09-09T00:58:58;3.83;;;1.37;;
4957;SDS011;2494;51.872;9.688;2022-09-09T01:01:27;1.87;;;1.13;;
4957;SDS011;2494;51.872;9.688;2022-09-09T01:03:55;2.20;;;1.20;;
4957;SDS011;2494;51.872;9.688;2022-09-09T01:06:26;1.93;;;1.30;;
4957;SDS011;2494;51.872;9.688;2022-09-09T01:09:02;1.33;;;1.20;;
4957;SDS011;2494;51.872;9.688;2022-09-09T01:11:32;2.40;;;1.30;;
4957;SDS011;2494;51.872;9.688;2022-09-09T01:14:01;1.30;;;1.20;;
4957;SDS011;2494;51.872;9.688;2022-09-09T01:16:29;2.47;;;1.30;;
4957;SDS011;2494;51.872;9.688;2022-09-09T01:18:58;2.13;;;1.40;;
4957;SDS011;2494;51.872;9.688;2022-09-09T01:21:27;1.40;;;1.30;;
4957;SDS011;2494;51.872;9.688;2022-09-09T01:24:03;2.30;;;1.47;;
4957;SDS011;2494;51.872;9.688;2022-09-09T01:26:33;2.10;;;1.30;;
4957;SDS011;2494;51.872;9.688;2022-09-09T01:29:01;2.23;;;1.50;;
4957;SDS011;2494;51.872;9.688;2022-09-09T01:31:28;3.47;;;1.40;;
4957;SDS011;2494;51.872;9.688;2022-09-09T01:33:56;2.00;;;1.20;;
4957;SDS011;2494;51.872;9.688;2022-09-09T01:36:24;6.57;;;1.53;;
4957;SDS011;2494;51.872;9.688;2022-09-09T01:38:52;2.37;;;1.80;;
4957;SDS011;2494;51.872;9.688;2022-09-09T01:41:19;1.80;;;1.60;;
4957;SDS011;2494;51.872;9.688;2022-09-09T01:43:47;2.27;;;1.60;;
4957;SDS011;2494;51.872;9.688;2022-09-09T01:46:13;4.77;;;1.73;;
4957;SDS011;2494;51.872;9.688;2022-09-09T01:48:40;2.17;;;1.50;;
4957;SDS011;2494;51.872;9.688;2022-09-09T01:51:07;2.20;;;1.90;;
4957;SDS011;2494;51.872;9.688;2022-09-09T01:53:33;2.33;;;1.93;;
4957;SDS011;2494;51.872;9.688;2022-09-09T01:56:02;2.70;;;2.50;;
4957;SDS011;2494;51.872;9.688;2022-09-09T01:58:39;2.13;;;1.90;;
4957;SDS011;2494;51.872;9.688;2022-09-09T02:01:10;2.33;;;2.23;;
4957;SDS011;2494;51.872;9.688;2022-09-09T02:03:39;2.63;;;2.47;;
4957;SDS011;2494;51.872;9.688;2022-09-09T02:06:10;3.00;;;2.20;;
4957;SDS011;2494;51.872;9.688;2022-09-09T02:08:42;3.33;;;2.83;;
4957;SDS011;2494;51.872;9.688;2022-09-09T02:11:11;4.00;;;2.90;;
4957;SDS011;2494;51.872;9.688;2022-09-09T02:13:38;3.93;;;2.80;;
4957;SDS011;2494;51.872;9.688;2022-09-09T02:16:07;2.87;;;2.57;;
4957;SDS011;2494;51.872;9.688;2022-09-09T02:18:36;2.77;;;2.57;;
4957;SDS011;2494;51.872;9.688;2022-09-09T02:21:04;4.37;;;2.70;;
4957;SDS011;2494;51.872;9.688;2022-09-09T02:23:31;3.30;;;3.10;;
4957;SDS011;2494;51.872;9.688;2022-09-09T02:25:59;4.00;;;3.13;;
4957;SDS011;2494;51.872;9.688;2022-09-09T02:28:26;5.40;;;3.27;;
4957;SDS011;2494;51.872;9.688;2022-09-09T02:30:54;6.37;;;3.90;;
4957;SDS011;2494;51.872;9.688;2022-09-09T02:33:24;4.07;;;3.67;;
4957;SDS011;2494;51.872;9.688;2022-09-09T02:35:54;7.47;;;3.87;;
4957;SDS011;2494;51.872;9.688;2022-09-09T02:38:26;4.77;;;2.97;;
4957;SDS011;2494;51.872;9.688;2022-09-09T02:40:55;4.23;;;3.83;;
4957;SDS011;2494;51.872;9.688;2022-09-09T02:43:23;7.93;;;4.30;;
4957;SDS011;2494;51.872;9.688;2022-09-09T02:45:51;4.50;;;4.10;;
4957;SDS011;2494;51.872;9.688;2022-09-09T02:48:20;4.13;;;3.57;;
4957;SDS011;2494;51.872;9.688;2022-09-09T02:50:50;6.60;;;4.40;;
4957;SDS011;2494;51.872;9.688;2022-09-09T02:53:20;3.53;;;3.30;;
4957;SDS011;2494;51.872;9.688;2022-09-09T02:55:50;6.53;;;5.93;;
4957;SDS011;2494;51.872;9.688;2022-09-09T02:58:19;9.40;;;4.03;;
4957;SDS011;2494;51.872;9.688;2022-09-09T03:00:47;4.40;;;4.03;;
4957;SDS011;2494;51.872;9.688;2022-09-09T03:03:13;4.73;;;3.93;;
4957;SDS011;2494;51.872;9.688;2022-09-09T03:05:41;4.53;;;3.10;;
4957;SDS011;2494;51.872;9.688;2022-09-09T03:08:07;3.40;;;2.90;;
4957;SDS011;2494;51.872;9.688;2022-09-09T03:10:35;3.73;;;3.13;;
4957;SDS011;2494;51.872;9.688;2022-09-09T03:13:02;8.93;;;3.27;;
4957;SDS011;2494;51.872;9.688;2022-09-09T03:15:29;4.03;;;3.40;;
4957;SDS011;2494;51.872;9.688;2022-09-09T03:17:56;6.27;;;2.47;;
4957;SDS011;2494;51.872;9.688;2022-09-09T03:20:23;4.00;;;2.20;;
4957;SDS011;2494;51.872;9.688;2022-09-09T03:22:50;2.60;;;2.30;;
4957;SDS011;2494;51.872;9.688;2022-09-09T03:25:18;5.07;;;2.03;;
4957;SDS011;2494;51.872;9.688;2022-09-09T03:27:46;2.27;;;2.07;;
4957;SDS011;2494;51.872;9.688;2022-09-09T03:30:12;3.50;;;1.97;;
4957;SDS011;2494;51.872;9.688;2022-09-09T03:32:39;3.40;;;2.00;;
4957;SDS011;2494;51.872;9.688;2022-09-09T03:35:06;6.50;;;2.27;;
4957;SDS011;2494;51.872;9.688;2022-09-09T03:37:33;2.33;;;2.13;;
4957;SDS011;2494;51.872;9.688;2022-09-09T03:39:59;2.43;;;1.90;;
4957;SDS011;2494;51.872;9.688;2022-09-09T03:42:26;2.50;;;2.00;;
4957;SDS011;2494;51.872;9.688;2022-09-09T03:44:53;5.70;;;1.63;;
4957;SDS011;2494;51.872;9.688;2022-09-09T03:47:20;4.13;;;2.77;;
4957;SDS011;2494;51.872;9.688;2022-09-09T03:49:47;2.60;;;1.70;;
4957;SDS011;2494;51.872;9.688;2022-09-09T03:52:14;2.43;;;1.80;;
4957;SDS011;2494;51.872;9.688;2022-09-09T03:54:41;3.00;;;1.30;;
4957;SDS011;2494;51.872;9.688;2022-09-09T03:57:08;1.80;;;1.70;;
4957;SDS011;2494;51.872;9.688;2022-09-09T03:59:34;2.67;;;2.00;;
4957;SDS011;2494;51.872;9.688;2022-09-09T04:02:02;2.57;;;1.60;;
4957;SDS011;2494;51.872;9.688;2022-09-09T04:04:28;2.40;;;1.50;;
4957;SDS011;2494;51.872;9.688;2022-09-09T04:06:55;3.07;;;2.03;;
4957;SDS011;2494;51.872;9.688;2022-09-09T04:09:22;4.07;;;1.90;;
4957;SDS011;2494;51.872;9.688;2022-09-09T04:11:49;3.97;;;1.90;;
4957;SDS011;2494;51.872;9.688;2022-09-09T04:14:15;2.10;;;1.47;;
4957;SDS011;2494;51.872;9.688;2022-09-09T04:16:42;4.17;;;2.10;;
4957;SDS011;2494;51.872;9.688;2022-09-09T04:19:11;3.27;;;1.90;;
4957;SDS011;2494;51.872;9.688;2022-09-09T04:21:38;2.60;;;1.73;;
4957;SDS011;2494;51.872;9.688;2022-09-09T04:24:05;3.77;;;1.63;;
4957;SDS011;2494;51.872;9.688;2022-09-09T04:26:32;4.93;;;1.67;;
4957;SDS011;2494;51.872;9.688;2022-09-09T04:28:58;4.13;;;1.73;;
4957;SDS011;2494;51.872;9.688;2022-09-09T04:31:26;3.90;;;1.70;;
4957;SDS011;2494;51.872;9.688;2022-09-09T04:33:52;3.07;;;1.70;;
4957;SDS011;2494;51.872;9.688;2022-09-09T04:36:20;4.47;;;1.73;;
4957;SDS011;2494;51.872;9.688;2022-09-09T04:38:46;4.93;;;1.60;;
4957;SDS011;2494;51.872;9.688;2022-09-09T04:41:13;2.13;;;1.30;;
4957;SDS011;2494;51.872;9.688;2022-09-09T04:43:41;6.37;;;2.90;;
4957;SDS011;2494;51.872;9.688;2022-09-09T04:46:08;2.40;;;1.47;;
4957;SDS011;2494;51.872;9.688;2022-09-09T04:48:34;2.20;;;1.63;;
4957;SDS011;2494;51.872;9.688;2022-09-09T04:51:01;2.83;;;1.90;;
4957;SDS011;2494;51.872;9.688;2022-09-09T04:53:30;2.60;;;1.80;;
4957;SDS011;2494;51.872;9.688;2022-09-09T04:56:03;2.50;;;1.50;;
4957;SDS011;2494;51.872;9.688;2022-09-09T04:58:30;3.80;;;1.83;;
4957;SDS011;2494;51.872;9.688;2022-09-09T05:01:02;3.63;;;1.70;;
4957;SDS011;2494;51.872;9.688;2022-09-09T05:03:28;5.93;;;2.30;;
4957;SDS011;2494;51.872;9.688;2022-09-09T05:06:01;1.80;;;1.67;;
4957;SDS011;2494;51.872;9.688;2022-09-09T05:08:30;3.10;;;1.60;;
4957;SDS011;2494;51.872;9.688;2022-09-09T05:10:56;4.77;;;1.90;;
4957;SDS011;2494;51.872;9.688;2022-09-09T05:13:24;2.77;;;1.80;;
4957;SDS011;2494;51.872;9.688;2022-09-09T05:15:51;4.50;;;2.07;;
4957;SDS011;2494;51.872;9.688;2022-09-09T05:18:17;2.70;;;1.87;;
4957;SDS011;2494;51.872;9.688;2022-09-09T05:20:44;3.13;;;1.63;;
4957;SDS011;2494;51.872;9.688;2022-09-09T05:23:10;5.07;;;2.20;;
4957;SDS011;2494;51.872;9.688;2022-09-09T05:25:39;1.80;;;1.70;;
4957;SDS011;2494;51.872;9.688;2022-09-09T05:28:06;6.83;;;1.63;;
4957;SDS011;2494;51.872;9.688;2022-09-09T05:30:33;1.60;;;1.40;;
4957;SDS011;2494;51.872;9.688;2022-09-09T05:33:05;1.77;;;1.60;;
4957;SDS011;2494;51.872;9.688;2022-09-09T05:35:34;3.70;;;1.60;;
4957;SDS011;2494;51.872;9.688;2022-09-09T05:38:00;2.10;;;1.50;;
4957;SDS011;2494;51.872;9.688;2022-09-09T05:40:27;1.70;;;1.40;;
4957;SDS011;2494;51.872;9.688;2022-09-09T05:42:54;2.07;;;1.87;;
4957;SDS011;2494;51.872;9.688;2022-09-09T05:45:21;3.10;;;1.50;;
4957;SDS011;2494;51.872;9.688;2022-09-09T05:47:51;1.60;;;1.33;;
4957;SDS011;2494;51.872;9.688;2022-09-09T05:50:18;2.20;;;1.40;;
4957;SDS011;2494;51.872;9.688;2022-09-09T05:52:44;1.43;;;1.33;;
4957;SDS011;2494;51.872;9.688;2022-09-09T05:55:10;4.13;;;1.73;;
4957;SDS011;2494;51.872;9.688;2022-09-09T05:57:37;1.90;;;1.70;;
4957;SDS011;2494;51.872;9.688;2022-09-09T06:00:06;5.37;;;1.77;;
4957;SDS011;2494;51.872;9.688;2022-09-09T06:02:32;5.33;;;1.60;;
4957;SDS011;2494;51.872;9.688;2022-09-09T06:04:59;1.73;;;1.50;;
4957;SDS011;2494;51.872;9.688;2022-09-09T06:07:25;9.93;;;2.63;;
4957;SDS011;2494;51.872;9.688;2022-09-09T06:09:51;2.90;;;1.60;;
4957;SDS011;2494;51.872;9.688;2022-09-09T06:12:18;2.10;;;1.70;;
4957;SDS011;2494;51.872;9.688;2022-09-09T06:14:45;3.10;;;1.60;;
4957;SDS011;2494;51.872;9.688;2022-09-09T06:17:13;2.70;;;1.40;;
4957;SDS011;2494;51.872;9.688;2022-09-09T06:19:40;2.13;;;1.70;;
4957;SDS011;2494;51.872;9.688;2022-09-09T06:22:06;1.63;;;1.53;;
4957;SDS011;2494;51.872;9.688;2022-09-09T06:24:34;3.10;;;1.87;;
4957;SDS011;2494;51.872;9.688;2022-09-09T06:27:00;1.60;;;1.33;;
4957;SDS011;2494;51.872;9.688;2022-09-09T06:29:27;2.93;;;1.37;;
4957;SDS011;2494;51.872;9.688;2022-09-09T06:31:53;1.93;;;1.67;;
4957;SDS011;2494;51.872;9.688;2022-09-09T06:34:21;3.30;;;1.40;;
4957;SDS011;2494;51.872;9.688;2022-09-09T06:36:48;2.07;;;1.70;;
4957;SDS011;2494;51.872;9.688;2022-09-09T06:39:14;1.77;;;1.60;;
4957;SDS011;2494;51.872;9.688;2022-09-09T06:41:40;3.80;;;1.60;;
4957;SDS011;2494;51.872;9.688;2022-09-09T06:44:07;1.53;;;1.20;;
4957;SDS011;2494;51.872;9.688;2022-09-09T06:46:36;2.47;;;1.27;;
4957;SDS011;2494;51.872;9.688;2022-09-09T06:49:04;2.90;;;1.53;;
4957;SDS011;2494;51.872;9.688;2022-09-09T06:51:33;3.70;;;1.37;;
4957;SDS011;2494;51.872;9.688;2022-09-09T06:54:00;3.90;;;1.40;;
4957;SDS011;2494;51.872;9.688;2022-09-09T06:56:27;1.67;;;1.30;;
4957;SDS011;2494;51.872;9.688;2022-09-09T06:58:54;3.40;;;1.53;;
4957;SDS011;2494;51.872;9.688;2022-09-09T07:01:21;1.47;;;1.37;;
4957;SDS011;2494;51.872;9.688;2022-09-09T07:03:48;1.50;;;1.40;;
4957;SDS011;2494;51.872;9.688;2022-09-09T07:06:16;1.77;;;1.43;;
4957;SDS011;2494;51.872;9.688;2022-09-09T07:08:47;2.83;;;1.43;;
4957;SDS011;2494;51.872;9.688;2022-09-09T07:11:14;1.40;;;1.30;;
4957;SDS011;2494;51.872;9.688;2022-09-09T07:13:40;2.93;;;1.40;;
4957;SDS011;2494;51.872;9.688;2022-09-09T07:16:07;2.13;;;1.83;;
4957;SDS011;2494;51.872;9.688;2022-09-09T07:18:34;1.37;;;1.27;;
4957;SDS011;2494;51.872;9.688;2022-09-09T07:21:01;1.50;;;1.40;;
4957;SDS011;2494;51.872;9.688;2022-09-09T07:23:28;2.03;;;1.30;;
4957;SDS011;2494;51.872;9.688;2022-09-09T07:25:56;2.30;;;1.50;;
4957;SDS011;2494;51.872;9.688;2022-09-09T07:28:23;3.13;;;1.40;;
4957;SDS011;2494;51.872;9.688;2022-09-09T07:30:53;3.00;;;1.50;;
4957;SDS011;2494;51.872;9.688;2022-09-09T07:33:20;2.73;;;1.40;;
4957;SDS011;2494;51.872;9.688;2022-09-09T07:35:46;2.83;;;1.13;;
4957;SDS011;2494;51.872;9.688;2022-09-09T07:38:12;1.90;;;1.27;;
4957;SDS011;2494;51.872;9.688;2022-09-09T07:40:39;1.90;;;1.50;;
4957;SDS011;2494;51.872;9.688;2022-09-09T07:43:07;1.57;;;1.17;;
4957;SDS011;2494;51.872;9.688;2022-09-09T07:45:34;2.80;;;1.30;;
4957;SDS011;2494;51.872;9.688;2022-09-09T07:48:00;2.90;;;1.17;;
4957;SDS011;2494;51.872;9.688;2022-09-09T07:50:27;2.13;;;1.20;;
4957;SDS011;2494;51.872;9.688;2022-09-09T07:52:53;2.40;;;1.10;;
4957;SDS011;2494;51.872;9.688;2022-09-09T07:55:20;1.30;;;0.90;;
4957;SDS011;2494;51.872;9.688;2022-09-09T07:57:47;2.47;;;1.10;;
4957;SDS011;2494;51.872;9.688;2022-09-09T08:00:15;5.60;;;1.10;;
4957;SDS011;2494;51.872;9.688;2022-09-09T08:02:41;3.27;;;1.03;;
4957;SDS011;2494;51.872;9.688;2022-09-09T08:05:08;1.97;;;1.10;;
4957;SDS011;2494;51.872;9.688;2022-09-09T08:07:34;3.53;;;1.07;;
4957;SDS011;2494;51.872;9.688;2022-09-09T08:10:01;1.87;;;1.07;;
4957;SDS011;2494;51.872;9.688;2022-09-09T08:12:28;2.20;;;1.07;;
4957;SDS011;2494;51.872;9.688;2022-09-09T08:14:54;3.33;;;1.23;;
4957;SDS011;2494;51.872;9.688;2022-09-09T08:17:22;1.53;;;0.90;;
4957;SDS011;2494;51.872;9.688;2022-09-09T08:19:48;2.57;;;1.20;;
4957;SDS011;2494;51.872;9.688;2022-09-09T08:22:15;4.90;;;1.20;;
4957;SDS011;2494;51.872;9.688;2022-09-09T08:24:41;2.60;;;0.97;;
4957;SDS011;2494;51.872;9.688;2022-09-09T08:27:08;1.77;;;1.30;;
4957;SDS011;2494;51.872;9.688;2022-09-09T08:29:35;4.80;;;1.67;;
4957;SDS011;2494;51.872;9.688;2022-09-09T08:32:03;3.07;;;1.10;;
4957;SDS011;2494;51.872;9.688;2022-09-09T08:34:40;2.27;;;1.00;;
4957;SDS011;2494;51.872;9.688;2022-09-09T08:37:06;4.17;;;1.40;;
4957;SDS011;2494;51.872;9.688;2022-09-09T08:39:33;1.30;;;0.90;;
4957;SDS011;2494;51.872;9.688;2022-09-09T08:42:06;1.97;;;1.40;;
4957;SDS011;2494;51.872;9.688;2022-09-09T08:44:43;2.70;;;1.30;;
4957;SDS011;2494;51.872;9.688;2022-09-09T08:47:13;4.33;;;1.47;;
4957;SDS011;2494;51.872;9.688;2022-09-09T08:49:47;1.57;;;0.90;;
4957;SDS011;2494;51.872;9.688;2022-09-09T08:52:17;1.60;;;1.13;;
4957;SDS011;2494;51.872;9.688;2022-09-09T08:54:45;1.70;;;0.90;;
4957;SDS011;2494;51.872;9.688;2022-09-09T08:57:13;2.37;;;1.37;;
4957;SDS011;2494;51.872;9.688;2022-09-09T08:59:40;3.60;;;2.17;;
4957;SDS011;2494;51.872;9.688;2022-09-09T09:02:08;1.57;;;1.00;;
4957;SDS011;2494;51.872;9.688;2022-09-09T09:04:43;2.83;;;1.00;;
4957;SDS011;2494;51.872;9.688;2022-09-09T09:07:17;2.20;;;1.13;;
4957;SDS011;2494;51.872;9.688;2022-09-09T09:09:49;3.00;;;1.07;;
4957;SDS011;2494;51.872;9.688;2022-09-09T09:12:19;3.03;;;1.00;;
4957;SDS011;2494;51.872;9.688;2022-09-09T09:14:46;1.67;;;0.90;;
4957;SDS011;2494;51.872;9.688;2022-09-09T09:17:13;1.80;;;0.90;;
4957;SDS011;2494;51.872;9.688;2022-09-09T09:19:41;1.90;;;1.10;;
4957;SDS011;2494;51.872;9.688;2022-09-09T09:22:10;3.53;;;1.07;;
4957;SDS011;2494;51.872;9.688;2022-09-09T09:24:44;1.90;;;1.10;;
4957;SDS011;2494;51.872;9.688;2022-09-09T09:27:12;3.33;;;1.30;;
4957;SDS011;2494;51.872;9.688;2022-09-09T09:29:39;2.10;;;0.97;;
4957;SDS011;2494;51.872;9.688;2022-09-09T09:32:08;3.37;;;1.20;;
4957;SDS011;2494;51.872;9.688;2022-09-09T09:34:38;3.10;;;1.20;;
4957;SDS011;2494;51.872;9.688;2022-09-09T09:37:11;4.10;;;1.20;;
4957;SDS011;2494;51.872;9.688;2022-09-09T09:39:38;2.60;;;1.00;;
4957;SDS011;2494;51.872;9.688;2022-09-09T09:42:09;2.43;;;1.10;;
4957;SDS011;2494;51.872;9.688;2022-09-09T09:44:40;2.00;;;1.00;;
4957;SDS011;2494;51.872;9.688;2022-09-09T09:47:07;2.33;;;1.10;;
4957;SDS011;2494;51.872;9.688;2022-09-09T09:49:34;1.60;;;1.10;;
4957;SDS011;2494;51.872;9.688;2022-09-09T09:52:00;1.43;;;1.03;;
4957;SDS011;2494;51.872;9.688;2022-09-09T09:54:28;7.40;;;1.20;;
4957;SDS011;2494;51.872;9.688;2022-09-09T09:56:55;2.17;;;1.10;;
4957;SDS011;2494;51.872;9.688;2022-09-09T09:59:32;3.20;;;1.20;;
4957;SDS011;2494;51.872;9.688;2022-09-09T10:02:06;1.43;;;1.00;;
4957;SDS011;2494;51.872;9.688;2022-09-09T10:04:38;2.53;;;0.97;;
4957;SDS011;2494;51.872;9.688;2022-09-09T10:07:10;2.33;;;1.20;;
4957;SDS011;2494;51.872;9.688;2022-09-09T10:09:36;1.50;;;1.00;;
4957;SDS011;2494;51.872;9.688;2022-09-09T10:12:04;1.80;;;0.93;;
4957;SDS011;2494;51.872;9.688;2022-09-09T10:14:36;2.07;;;1.10;;
4957;SDS011;2494;51.872;9.688;2022-09-09T10:17:07;3.90;;;1.00;;
4957;SDS011;2494;51.872;9.688;2022-09-09T10:19:37;3.77;;;1.00;;
4957;SDS011;2494;51.872;9.688;2022-09-09T10:22:19;2.50;;;1.57;;
4957;SDS011;2494;51.872;9.688;2022-09-09T10:24:51;2.73;;;1.00;;
4957;SDS011;2494;51.872;9.688;2022-09-09T10:27:21;1.93;;;0.90;;
4957;SDS011;2494;51.872;9.688;2022-09-09T10:29:59;2.77;;;1.20;;
4957;SDS011;2494;51.872;9.688;2022-09-09T10:32:33;3.17;;;0.90;;
4957;SDS011;2494;51.872;9.688;2022-09-09T10:35:02;1.97;;;1.10;;
4957;SDS011;2494;51.872;9.688;2022-09-09T10:37:43;1.80;;;1.10;;
4957;SDS011;2494;51.872;9.688;2022-09-09T10:40:27;1.60;;;1.07;;
4957;SDS011;2494;51.872;9.688;2022-09-09T10:43:00;1.53;;;0.80;;
4957;SDS011;2494;51.872;9.688;2022-09-09T10:45:32;2.10;;;0.90;;
4957;SDS011;2494;51.872;9.688;2022-09-09T10:48:05;2.33;;;1.20;;
4957;SDS011;2494;51.872;9.688;2022-09-09T10:50:38;3.53;;;1.53;;
4957;SDS011;2494;51.872;9.688;2022-09-09T10:53:08;1.20;;;1.00;;
4957;SDS011;2494;51.872;9.688;2022-09-09T10:55:39;3.03;;;1.17;;
4957;SDS011;2494;51.872;9.688;2022-09-09T10:58:09;2.53;;;0.90;;
4957;SDS011;2494;51.872;9.688;2022-09-09T11:00:39;1.53;;;0.90;;
4957;SDS011;2494;51.872;9.688;2022-09-09T11:03:06;6.10;;;1.60;;
4957;SDS011;2494;51.872;9.688;2022-09-09T11:05:39;1.77;;;1.17;;
4957;SDS011;2494;51.872;9.688;2022-09-09T11:08:09;2.97;;;1.20;;
4957;SDS011;2494;51.872;9.688;2022-09-09T11:10:38;2.20;;;1.00;;
4957;SDS011;2494;51.872;9.688;2022-09-09T11:13:08;2.10;;;1.20;;
4957;SDS011;2494;51.872;9.688;2022-09-09T11:15:39;2.03;;;0.90;;
4957;SDS011;2494;51.872;9.688;2022-09-09T11:18:09;3.87;;;1.50;;
4957;SDS011;2494;51.872;9.688;2022-09-09T11:20:37;3.30;;;1.03;;
4957;SDS011;2494;51.872;9.688;2022-09-09T11:23:04;1.43;;;1.00;;
4957;SDS011;2494;51.872;9.688;2022-09-09T11:25:32;1.50;;;0.90;;
4957;SDS011;2494;51.872;9.688;2022-09-09T11:28:04;2.37;;;1.00;;
4957;SDS011;2494;51.872;9.688;2022-09-09T11:30:36;3.70;;;1.17;;
4957;SDS011;2494;51.872;9.688;2022-09-09T11:33:15;3.30;;;1.00;;
4957;SDS011;2494;51.872;9.688;2022-09-09T11:35:49;4.13;;;1.20;;
4957;SDS011;2494;51.872;9.688;2022-09-09T11:38:25;5.53;;;2.33;;
4957;SDS011;2494;51.872;9.688;2022-09-09T11:40:55;2.10;;;1.10;;
4957;SDS011;2494;51.872;9.688;2022-09-09T11:43:25;2.90;;;1.30;;
4957;SDS011;2494;51.872;9.688;2022-09-09T11:45:53;3.17;;;0.90;;
4957;SDS011;2494;51.872;9.688;2022-09-09T11:48:25;3.60;;;1.20;;
4957;SDS011;2494;51.872;9.688;2022-09-09T11:51:00;2.33;;;0.80;;
4957;SDS011;2494;51.872;9.688;2022-09-09T11:53:28;2.50;;;0.90;;
4957;SDS011;2494;51.872;9.688;2022-09-09T11:56:05;3.60;;;1.20;;
4957;SDS011;2494;51.872;9.688;2022-09-09T11:58:34;1.83;;;0.80;;
4957;SDS011;2494;51.872;9.688;2022-09-09T12:03:49;1.53;;;0.77;;
4957;SDS011;2494;51.872;9.688;2022-09-09T12:06:17;4.57;;;1.03;;
4957;SDS011;2494;51.872;9.688;2022-09-09T12:08:46;2.40;;;1.20;;
4957;SDS011;2494;51.872;9.688;2022-09-09T12:11:23;9.57;;;1.10;;
4957;SDS011;2494;51.872;9.688;2022-09-09T12:13:52;6.63;;;1.60;;
4957;SDS011;2494;51.872;9.688;2022-09-09T12:16:27;9.60;;;1.20;;
4957;SDS011;2494;51.872;9.688;2022-09-09T12:19:02;1.60;;;1.00;;
4957;SDS011;2494;51.872;9.688;2022-09-09T12:21:33;1.63;;;1.00;;
4957;SDS011;2494;51.872;9.688;2022-09-09T12:24:02;2.70;;;1.10;;
4957;SDS011;2494;51.872;9.688;2022-09-09T12:26:31;3.43;;;1.30;;
4957;SDS011;2494;51.872;9.688;2022-09-09T12:29:05;2.80;;;1.63;;
4957;SDS011;2494;51.872;9.688;2022-09-09T12:31:39;2.80;;;1.37;;
4957;SDS011;2494;51.872;9.688;2022-09-09T12:34:13;1.80;;;1.00;;
4957;SDS011;2494;51.872;9.688;2022-09-09T12:36:40;2.37;;;1.27;;
4957;SDS011;2494;51.872;9.688;2022-09-09T12:39:10;1.27;;;0.80;;
4957;SDS011;2494;51.872;9.688;2022-09-09T12:41:50;3.10;;;0.90;;
4957;SDS011;2494;51.872;9.688;2022-09-09T12:44:18;3.07;;;1.40;;
4957;SDS011;2494;51.872;9.688;2022-09-09T12:46:44;2.40;;;0.93;;
4957;SDS011;2494;51.872;9.688;2022-09-09T12:49:23;4.30;;;0.90;;
4957;SDS011;2494;51.872;9.688;2022-09-09T12:51:52;1.43;;;0.90;;
4957;SDS011;2494;51.872;9.688;2022-09-09T12:54:19;1.60;;;1.00;;
4957;SDS011;2494;51.872;9.688;2022-09-09T12:56:46;1.73;;;1.43;;
4957;SDS011;2494;51.872;9.688;2022-09-09T12:59:17;3.50;;;1.27;;
4957;SDS011;2494;51.872;9.688;2022-09-09T13:01:54;1.80;;;1.00;;
4957;SDS011;2494;51.872;9.688;2022-09-09T13:04:23;1.70;;;0.80;;
4957;SDS011;2494;51.872;9.688;2022-09-09T13:06:49;2.10;;;0.80;;
4957;SDS011;2494;51.872;9.688;2022-09-09T13:09:17;2.80;;;0.80;;
4957;SDS011;2494;51.872;9.688;2022-09-09T13:11:50;2.20;;;1.07;;
4957;SDS011;2494;51.872;9.688;2022-09-09T13:14:18;3.80;;;1.00;;
4957;SDS011;2494;51.872;9.688;2022-09-09T13:16:54;1.30;;;0.90;;
4957;SDS011;2494;51.872;9.688;2022-09-09T13:19:23;1.03;;;0.80;;
4957;SDS011;2494;51.872;9.688;2022-09-09T13:21:52;1.27;;;0.80;;
4957;SDS011;2494;51.872;9.688;2022-09-09T13:24:27;4.07;;;1.00;;
4957;SDS011;2494;51.872;9.688;2022-09-09T13:26:54;1.50;;;0.90;;
4957;SDS011;2494;51.872;9.688;2022-09-09T13:29:22;4.07;;;1.20;;
4957;SDS011;2494;51.872;9.688;2022-09-09T13:31:48;1.73;;;1.00;;
4957;SDS011;2494;51.872;9.688;2022-09-09T13:34:25;5.43;;;1.47;;
4957;SDS011;2494;51.872;9.688;2022-09-09T13:36:59;11.07;;;2.30;;
4957;SDS011;2494;51.872;9.688;2022-09-09T13:39:26;8.80;;;2.60;;
4957;SDS011;2494;51.872;9.688;2022-09-09T13:41:53;2.30;;;1.10;;
4957;SDS011;2494;51.872;9.688;2022-09-09T13:44:20;4.07;;;1.27;;
4957;SDS011;2494;51.872;9.688;2022-09-09T13:46:58;3.13;;;1.50;;
4957;SDS011;2494;51.872;9.688;2022-09-09T13:49:27;4.40;;;1.40;;
4957;SDS011;2494;51.872;9.688;2022-09-09T13:52:02;2.80;;;1.30;;
4957;SDS011;2494;51.872;9.688;2022-09-09T13:54:29;5.40;;;1.50;;
4957;SDS011;2494;51.872;9.688;2022-09-09T13:56:56;1.67;;;1.50;;
4957;SDS011;2494;51.872;9.688;2022-09-09T13:59:32;4.30;;;2.07;;
4957;SDS011;2494;51.872;9.688;2022-09-09T14:01:59;1.97;;;1.70;;
4957;SDS011;2494;51.872;9.688;2022-09-09T14:04:28;4.33;;;1.83;;
4957;SDS011;2494;51.872;9.688;2022-09-09T14:06:55;4.30;;;1.80;;
4957;SDS011;2494;51.872;9.688;2022-09-09T14:09:23;3.97;;;1.30;;
4957;SDS011;2494;51.872;9.688;2022-09-09T14:11:49;1.47;;;1.20;;
4957;SDS011;2494;51.872;9.688;2022-09-09T14:14:16;3.00;;;1.50;;
4957;SDS011;2494;51.872;9.688;2022-09-09T14:16:43;2.10;;;1.10;;
4957;SDS011;2494;51.872;9.688;2022-09-09T14:19:09;3.10;;;1.37;;
4957;SDS011;2494;51.872;9.688;2022-09-09T14:21:37;3.63;;;1.27;;
4957;SDS011;2494;51.872;9.688;2022-09-09T14:24:04;3.57;;;1.57;;
4957;SDS011;2494;51.872;9.688;2022-09-09T14:26:30;1.83;;;1.00;;
4957;SDS011;2494;51.872;9.688;2022-09-09T14:28:57;2.00;;;1.20;;
4957;SDS011;2494;51.872;9.688;2022-09-09T14:31:25;3.47;;;1.33;;
4957;SDS011;2494;51.872;9.688;2022-09-09T14:33:51;2.37;;;1.30;;
4957;SDS011;2494;51.872;9.688;2022-09-09T14:36:18;1.63;;;1.00;;
4957;SDS011;2494;51.872;9.688;2022-09-09T14:38:46;2.20;;;1.07;;
4957;SDS011;2494;51.872;9.688;2022-09-09T14:41:15;1.77;;;1.30;;
4957;SDS011;2494;51.872;9.688;2022-09-09T14:43:43;1.70;;;1.43;;
4957;SDS011;2494;51.872;9.688;2022-09-09T14:46:10;4.90;;;1.70;;
4957;SDS011;2494;51.872;9.688;2022-09-09T14:48:36;3.17;;;1.70;;
4957;SDS011;2494;51.872;9.688;2022-09-09T14:51:05;3.30;;;1.87;;
4957;SDS011;2494;51.872;9.688;2022-09-09T14:53:32;2.80;;;1.13;;
4957;SDS011;2494;51.872;9.688;2022-09-09T14:56:04;3.00;;;1.50;;
4957;SDS011;2494;51.872;9.688;2022-09-09T14:58:31;1.47;;;1.33;;
4957;SDS011;2494;51.872;9.688;2022-09-09T15:01:01;1.90;;;0.90;;
4957;SDS011;2494;51.872;9.688;2022-09-09T15:03:27;4.20;;;0.93;;
4957;SDS011;2494;51.872;9.688;2022-09-09T15:05:54;2.80;;;0.90;;
4957;SDS011;2494;51.872;9.688;2022-09-09T15:08:21;2.20;;;1.20;;
4957;SDS011;2494;51.872;9.688;2022-09-09T15:10:47;2.80;;;1.30;;
4957;SDS011;2494;51.872;9.688;2022-09-09T15:13:15;1.93;;;1.37;;
4957;SDS011;2494;51.872;9.688;2022-09-09T15:15:43;1.47;;;1.07;;
4957;SDS011;2494;51.872;9.688;2022-09-09T15:18:10;2.10;;;1.20;;
4957;SDS011;2494;51.872;9.688;2022-09-09T15:20:56;2.10;;;1.20;;
4957;SDS011;2494;51.872;9.688;2022-09-09T15:23:23;4.53;;;1.87;;
4957;SDS011;2494;51.872;9.688;2022-09-09T15:25:50;2.13;;;1.00;;
4957;SDS011;2494;51.872;9.688;2022-09-09T15:28:18;1.70;;;1.00;;